Time;durP1;ratioP1;P1;durP2;ratioP2;P2;SDS_P1;SDS_P2;PMS_P1;PMS_P2;Temp;Humidity;BMP_temperature;BMP_pressure;BME280_temperature;BME280_humidity;BME280_pressure;Samples;Min_cycle;Max_cycle;Signal;HPM_P1;HPM_P2
2021/11/29 00:01:11;;;;;;;36.98;22.95;;;;;;;8.43;100.00;98088.02;1762753;79;21107;-92
2021/11/29 00:03:40;;;;;;;33.18;19.50;;;;;;;8.43;100.00;98089.36;1776676;80;20980;-88
2021/11/29 00:06:07;;;;;;;31.55;19.57;;;;;;;8.46;100.00;98088.00;1755679;80;21568;-87
2021/11/29 00:08:34;;;;;;;32.90;23.42;;;;;;;8.50;100.00;98091.72;1694012;82;20967;-88
2021/11/29 00:11:02;;;;;;;36.05;24.02;;;;;;;8.48;100.00;98090.67;1774430;80;21097;-88
2021/11/29 00:13:29;;;;;;;37.42;25.00;;;;;;;8.51;100.00;98086.63;1775126;80;20970;-84
2021/11/29 00:15:56;;;;;;;33.33;22.50;;;;;;;8.57;100.00;98074.82;1725486;80;21058;-84
2021/11/29 00:18:23;;;;;;;28.10;18.82;;;;;;;8.57;100.00;98074.82;1768312;79;21633;-79
2021/11/29 00:20:51;;;;;;;30.80;21.17;;;;;;;8.58;100.00;98067.05;1736324;81;21583;-89
2021/11/29 00:23:21;;;;;;;27.27;19.00;;;;;;;8.56;100.00;98070.00;1727167;80;20993;-79
2021/11/29 00:25:47;;;;;;;30.17;20.32;;;;;;;8.61;100.00;98069.97;1758460;80;21073;-80
2021/11/29 00:28:16;;;;;;;30.60;19.45;;;;;;;8.60;100.00;98073.72;1775154;79;21005;-78
2021/11/29 00:30:43;;;;;;;31.73;20.97;;;;;;;8.53;100.00;98067.88;1754187;80;20972;-82
2021/11/29 00:33:12;;;;;;;28.55;18.92;;;;;;;8.53;100.00;98061.72;1763509;79;21095;-81
2021/11/29 00:35:41;;;;;;;26.62;19.02;;;;;;;8.54;100.00;98062.77;1772199;80;21004;-78
2021/11/29 00:38:10;;;;;;;29.00;20.70;;;;;;;8.54;100.00;98052.05;1763420;79;29544;-80
2021/11/29 00:40:39;;;;;;;29.20;20.02;;;;;;;8.56;100.00;98049.91;1745064;82;21002;-86
2021/11/29 00:43:06;;;;;;;26.15;19.35;;;;;;;8.64;100.00;98039.94;1775162;80;20960;-92
2021/11/29 00:45:33;;;;;;;30.92;20.55;;;;;;;8.68;100.00;98033.50;1747747;80;21676;-86
2021/11/29 00:48:02;;;;;;;32.58;20.25;;;;;;;8.67;100.00;98029.21;1733381;81;21599;-79
2021/11/29 00:50:30;;;;;;;23.10;15.80;;;;;;;8.68;100.00;98019.53;1686383;82;21541;-84
2021/11/29 00:52:58;;;;;;;32.30;21.80;;;;;;;8.68;100.00;98014.73;1735480;81;21970;-76
2021/11/29 00:55:25;;;;;;;30.97;21.95;;;;;;;8.72;100.00;98013.91;1722522;81;21031;-79
2021/11/29 00:57:54;;;;;;;27.98;20.97;;;;;;;8.79;100.00;98008.75;1772928;79;21032;-78
2021/11/29 01:00:21;;;;;;;29.12;20.02;;;;;;;8.81;100.00;98006.59;1749124;80;21072;-77
2021/11/29 01:02:49;;;;;;;29.35;19.87;;;;;;;8.74;100.00;97997.52;1754176;80;20997;-78
2021/11/29 01:05:16;;;;;;;29.90;19.75;;;;;;;8.73;100.00;97991.36;1754535;80;21266;-82
2021/11/29 01:07:43;;;;;;;23.80;17.07;;;;;;;8.74;100.00;97986.27;1774207;80;20949;-76
2021/11/29 01:10:12;;;;;;;27.65;18.85;;;;;;;8.81;100.00;97986.50;1742083;81;21041;-76
2021/11/29 01:12:39;;;;;;;32.40;18.82;;;;;;;8.86;100.00;97983.78;1742776;81;21006;-79
2021/11/29 01:15:07;;;;;;;33.83;21.95;;;;;;;8.86;100.00;97973.86;1768229;79;21085;-82
2021/11/29 01:17:34;;;;;;;25.77;18.17;;;;;;;8.88;100.00;97972.22;1742196;81;21551;-82
2021/11/29 01:20:02;;;;;;;28.30;19.57;;;;;;;8.91;100.00;97968.46;1742983;81;20994;-87
2021/11/29 01:22:29;;;;;;;27.07;18.55;;;;;;;8.90;100.00;97966.05;1741455;81;21006;-83
2021/11/29 01:24:56;;;;;;;32.13;19.80;;;;;;;8.95;100.00;97961.98;1721408;81;21614;-77
2021/11/29 01:27:23;;;;;;;22.70;16.15;;;;;;;8.96;100.00;97967.61;1717541;82;21074;-79
2021/11/29 01:29:50;;;;;;;29.50;19.60;;;;;;;8.94;100.00;97967.88;1713003;81;21080;-81
2021/11/29 01:32:17;;;;;;;30.75;20.30;;;;;;;8.93;100.00;97965.48;1765781;80;21579;-75
2021/11/29 01:34:44;;;;;;;24.98;18.07;;;;;;;8.92;100.00;97951.27;1768838;81;21022;-82
2021/11/29 01:37:11;;;;;;;25.90;19.10;;;;;;;8.92;100.00;97951.27;1741676;81;21050;-78
2021/11/29 01:39:38;;;;;;;23.45;17.55;;;;;;;8.98;100.00;97948.01;1742557;81;21022;-79
2021/11/29 01:42:09;;;;;;;28.23;16.55;;;;;;;9.08;100.00;97950.06;1758375;80;21086;-80
2021/11/29 01:44:36;;;;;;;22.93;17.10;;;;;;;9.05;100.00;97947.16;1739537;81;21026;-86
2021/11/29 01:47:04;;;;;;;20.17;14.83;;;;;;;9.04;100.00;97944.20;1749504;81;21078;-84
2021/11/29 01:49:32;;;;;;;23.38;17.25;;;;;;;9.00;100.00;97943.98;1768666;81;20966;-82
2021/11/29 01:51:59;;;;;;;23.70;17.48;;;;;;;9.00;100.00;97945.86;1766935;81;20907;-82
2021/11/29 01:54:26;;;;;;;25.75;18.05;;;;;;;8.98;100.00;97941.30;1764894;81;21066;-87
2021/11/29 01:56:53;;;;;;;22.40;16.70;;;;;;;8.96;100.00;97936.25;1731090;81;21456;-79
2021/11/29 01:59:20;;;;;;;24.85;17.37;;;;;;;8.97;100.00;97943.19;1746155;81;21484;-81
2021/11/29 02:01:47;;;;;;;24.12;18.15;;;;;;;8.98;100.00;97932.73;1734995;82;21552;-83
2021/11/29 02:04:14;;;;;;;24.75;18.27;;;;;;;9.05;100.00;97931.06;1709882;82;21067;-78
2021/11/29 02:06:42;;;;;;;24.05;16.82;;;;;;;9.08;100.00;97922.45;1735211;82;21012;-80
2021/11/29 02:09:10;;;;;;;28.32;20.37;;;;;;;9.06;100.00;97921.95;1735524;81;21056;-81
2021/11/29 02:11:38;;;;;;;21.50;14.58;;;;;;;9.03;100.00;97919.81;1742591;81;20935;-79
2021/11/29 02:14:06;;;;;;;23.50;17.52;;;;;;;9.02;100.00;97910.97;1718526;82;20979;-76
2021/11/29 02:16:33;;;;;;;22.25;18.15;;;;;;;9.05;100.00;97914.44;1754753;81;20963;-82
2021/11/29 02:19:00;;;;;;;22.37;17.60;;;;;;;9.14;100.00;97905.23;1768558;81;21059;-84
2021/11/29 02:21:32;;;;;;;26.42;19.77;;;;;;;9.12;100.00;97903.36;1742592;81;21023;-78
2021/11/29 02:24:06;;;;;;;21.17;16.12;;;;;;;9.08;100.00;97902.33;1742413;81;21045;-80
2021/11/29 02:26:35;;;;;;;23.25;17.65;;;;;;;9.06;100.00;97901.30;1742186;81;21093;-79
2021/11/29 02:29:12;;;;;;;22.27;16.30;;;;;;;9.07;100.00;97895.37;1738866;81;21590;-81
2021/11/29 02:31:43;;;;;;;23.80;17.37;;;;;;;9.08;100.00;97896.97;1749915;80;21073;-84
2021/11/29 02:34:13;;;;;;;19.60;15.70;;;;;;;9.12;100.00;97891.30;1711735;82;21507;-75
2021/11/29 02:36:40;;;;;;;23.85;16.27;;;;;;;9.14;100.00;97889.94;1732222;81;21022;-76
2021/11/29 02:39:08;;;;;;;20.95;15.85;;;;;;;9.15;100.00;97890.75;1741852;81;21074;-75
2021/11/29 02:41:35;;;;;;;19.57;13.85;;;;;;;9.09;100.00;97885.16;1735279;81;21535;-75
2021/11/29 02:44:03;;;;;;;18.62;14.13;;;;;;;9.06;100.00;97877.70;1768452;80;21028;-74
2021/11/29 02:46:30;;;;;;;25.70;16.57;;;;;;;9.06;100.00;97881.19;1742409;81;20967;-82
2021/11/29 02:49:00;;;;;;;19.45;15.75;;;;;;;9.08;100.00;97873.64;1721129;82;20970;-85
2021/11/29 02:51:39;;;;;;;17.87;14.47;;;;;;;9.11;100.00;97869.03;1735604;81;22221;-72
2021/11/29 02:54:12;;;;;;;17.23;13.48;;;;;;;9.14;100.00;97874.39;1736643;81;21592;-79
2021/11/29 02:56:42;;;;;;;20.25;14.13;;;;;;;9.13;100.00;97858.03;1764631;81;22142;-78
2021/11/29 02:59:25;;;;;;;13.72;11.65;;;;;;;9.08;100.00;97860.23;1710567;82;21048;-84
2021/11/29 03:01:55;;;;;;;18.12;11.90;;;;;;;9.08;100.00;97846.83;1738994;82;21074;-83
2021/11/29 03:04:25;;;;;;;15.90;12.37;;;;;;;9.09;100.00;97841.73;1738451;82;21075;-85
2021/11/29 03:06:52;;;;;;;14.30;11.08;;;;;;;9.07;100.00;97841.20;1713446;82;20990;-83
2021/11/29 03:09:20;;;;;;;15.35;11.73;;;;;;;9.07;100.00;97836.37;1731528;81;22115;-79
2021/11/29 03:11:48;;;;;;;13.98;11.28;;;;;;;9.04;100.00;97832.40;1744480;81;20946;-83
2021/11/29 03:14:15;;;;;;;14.38;12.40;;;;;;;9.02;100.00;97830.53;1729614;83;21087;-80
2021/11/29 03:16:42;;;;;;;15.93;13.80;;;;;;;9.04;100.00;97826.23;1752259;81;21042;-81
2021/11/29 03:19:10;;;;;;;18.25;13.65;;;;;;;9.07;100.00;97818.95;1757970;81;21038;-82
2021/11/29 03:21:36;;;;;;;16.60;12.70;;;;;;;9.07;100.00;97819.75;1758941;81;21083;-84
2021/11/29 03:24:06;;;;;;;17.20;13.43;;;;;;;9.13;100.00;97803.06;1758975;81;21030;-86
2021/11/29 03:26:33;;;;;;;14.18;12.40;;;;;;;9.12;100.00;97803.59;1736984;81;21556;-84
2021/11/29 03:29:08;;;;;;;15.45;12.82;;;;;;;9.11;100.00;97801.23;1712447;82;21067;-81
2021/11/29 03:31:35;;;;;;;15.10;11.80;;;;;;;9.12;100.00;97802.27;1705292;81;21014;-84
2021/11/29 03:34:04;;;;;;;15.63;12.07;;;;;;;9.13;100.00;97800.38;1733613;82;21080;-82
2021/11/29 03:36:34;;;;;;;17.15;12.98;;;;;;;9.14;100.00;97797.96;1759440;81;21560;-82
2021/11/29 03:39:01;;;;;;;22.55;14.70;;;;;;;9.13;100.00;97786.44;1729350;82;21080;-82
2021/11/29 03:41:28;;;;;;;17.40;13.70;;;;;;;9.09;100.00;97792.12;1723315;82;21562;-82
2021/11/29 03:43:55;;;;;;;22.15;14.63;;;;;;;9.05;100.00;97784.94;1736588;82;21012;-82
2021/11/29 03:46:22;;;;;;;18.50;13.62;;;;;;;9.00;100.00;97781.77;1733827;81;21034;-81
2021/11/29 03:48:49;;;;;;;18.85;13.53;;;;;;;9.00;100.00;97767.56;1730509;81;21021;-83
2021/11/29 03:51:16;;;;;;;17.98;13.28;;;;;;;8.99;100.00;97760.59;1743784;81;21014;-88
2021/11/29 03:53:43;;;;;;;20.92;14.95;;;;;;;8.96;100.00;97760.64;1742912;81;21003;-83
2021/11/29 03:56:10;;;;;;;16.90;13.40;;;;;;;8.91;100.00;97758.56;1741647;81;21057;-79
2021/11/29 03:58:37;;;;;;;18.07;15.03;;;;;;;8.94;100.00;97766.02;1757417;81;21874;-81
2021/11/29 04:01:04;;;;;;;19.77;13.15;;;;;;;8.93;100.00;97752.36;1766556;81;21038;-79
2021/11/29 04:03:32;;;;;;;17.48;14.43;;;;;;;8.99;100.00;97746.66;1742653;81;21542;-78
2021/11/29 04:06:00;;;;;;;17.62;14.63;;;;;;;9.02;100.00;97743.39;1743102;81;21032;-84
2021/11/29 04:08:29;;;;;;;17.12;12.30;;;;;;;9.07;100.00;97751.91;1746448;81;20979;-83
2021/11/29 04:10:57;;;;;;;17.65;12.47;;;;;;;9.09;100.00;97747.88;1738225;82;21056;-82
2021/11/29 04:13:24;;;;;;;17.32;13.78;;;;;;;9.12;100.00;97730.40;1737942;82;21452;-80
2021/11/29 04:15:53;;;;;;;16.93;12.13;;;;;;;9.17;100.00;97737.04;1759583;81;22268;-81
2021/11/29 04:18:20;;;;;;;17.37;12.37;;;;;;;9.16;100.00;97728.19;1728088;82;21004;-79
2021/11/29 04:20:48;;;;;;;15.98;11.83;;;;;;;9.17;100.00;97728.45;1712759;82;21090;-82
2021/11/29 04:23:15;;;;;;;15.50;12.75;;;;;;;9.12;100.00;97727.72;1738203;82;21505;-84
2021/11/29 04:25:50;;;;;;;14.35;12.03;;;;;;;9.10;100.00;97717.30;1738152;82;20904;-82
2021/11/29 04:28:11;;;;;;;16.52;12.82;;;;;;;9.08;100.00;97713.30;1734320;81;20995;-82
2021/11/29 04:30:38;;;;;;;15.55;12.23;;;;;;;9.05;100.00;97713.34;1724955;81;21245;-82
2021/11/29 04:33:05;;;;;;;15.23;12.28;;;;;;;9.06;100.00;97700.20;1712876;82;21563;-83
2021/11/29 04:35:32;;;;;;;13.40;11.78;;;;;;;9.06;100.00;97700.20;1753733;81;21125;-82
2021/11/29 04:38:00;;;;;;;19.52;14.90;;;;;;;9.08;100.00;97701.23;1744378;81;21598;-81
2021/11/29 04:40:28;;;;;;;15.45;13.75;;;;;;;9.09;100.00;97700.15;1771664;81;21078;-82
2021/11/29 04:42:55;;;;;;;19.25;15.48;;;;;;;9.08;100.00;97694.53;1739118;82;21039;-81
2021/11/29 04:45:23;;;;;;;16.57;14.78;;;;;;;9.06;100.00;97697.52;1738040;82;21003;-83
2021/11/29 04:47:50;;;;;;;18.75;12.50;;;;;;;9.10;100.00;97695.05;1754038;81;21124;-83
2021/11/29 04:50:16;;;;;;;16.10;12.82;;;;;;;9.13;100.00;97696.59;1745476;81;21575;-81
2021/11/29 04:52:43;;;;;;;14.65;12.03;;;;;;;9.16;100.00;97696.55;1745261;81;20987;-83
2021/11/29 04:55:12;;;;;;;18.92;16.05;;;;;;;9.15;100.00;97699.80;1751131;81;21093;-82
2021/11/29 04:57:40;;;;;;;18.70;15.28;;;;;;;9.16;100.00;97707.28;1770940;81;20978;-79
2021/11/29 05:00:10;;;;;;;20.43;16.10;;;;;;;9.12;100.00;97703.05;1746220;81;21029;-80
2021/11/29 05:02:36;;;;;;;17.62;15.45;;;;;;;9.08;100.00;97702.03;1739187;81;21602;-80
2021/11/29 05:05:07;;;;;;;17.62;14.20;;;;;;;9.07;100.00;97696.95;1764801;81;20977;-79
2021/11/29 05:07:34;;;;;;;23.77;17.32;;;;;;;9.10;100.00;97696.39;1731119;82;21018;-79
2021/11/29 05:10:03;;;;;;;20.10;14.90;;;;;;;9.15;100.00;97693.64;1702558;83;21581;-80
2021/11/29 05:12:30;;;;;;;21.68;17.37;;;;;;;9.15;100.00;97683.72;1717300;83;21968;-77
2021/11/29 05:14:57;;;;;;;18.20;15.60;;;;;;;9.20;100.00;97685.52;1717072;83;21596;-83
2021/11/29 05:17:24;;;;;;;24.32;17.67;;;;;;;9.23;100.00;97686.28;1725771;81;21083;-82
2021/11/29 05:19:51;;;;;;;19.23;16.85;;;;;;;9.20;100.00;97684.19;1730771;81;20996;-82
2021/11/29 05:22:18;;;;;;;17.52;15.58;;;;;;;9.23;100.00;97682.80;1696920;83;20987;-81
2021/11/29 05:24:45;;;;;;;19.70;15.48;;;;;;;9.22;100.00;97676.63;1717277;83;21099;-82
2021/11/29 05:27:14;;;;;;;22.73;16.80;;;;;;;9.24;100.00;97678.48;1718196;81;21023;-80
2021/11/29 05:29:41;;;;;;;21.02;14.85;;;;;;;9.19;100.00;97665.95;1717404;81;21497;-80
2021/11/29 05:32:08;;;;;;;17.37;14.50;;;;;;;9.21;100.00;97669.66;1696683;83;20916;-80
2021/11/29 05:34:36;;;;;;;17.98;15.85;;;;;;;9.25;100.00;97672.05;1672294;83;20992;-80
2021/11/29 05:37:03;;;;;;;28.40;24.02;;;;;;;9.31;100.00;97675.42;1708334;81;21861;-80
2021/11/29 05:39:30;;;;;;;24.98;21.90;;;;;;;9.36;100.00;97671.33;1731066;81;20995;-79
2021/11/29 05:41:57;;;;;;;29.82;23.92;;;;;;;9.37;100.00;97679.63;1753682;81;21537;-88
2021/11/29 05:44:24;;;;;;;26.33;22.62;;;;;;;9.33;100.00;97677.29;1754221;81;20991;-92
2021/11/29 05:46:52;;;;;;;20.88;17.87;;;;;;;9.33;100.00;97681.31;1732215;81;21106;-77
2021/11/29 05:49:21;;;;;;;20.15;18.02;;;;;;;9.34;100.00;97685.59;1699526;83;21000;-77
2021/11/29 05:51:50;;;;;;;22.48;17.02;;;;;;;9.35;100.00;97674.55;1724890;81;21241;-78
2021/11/29 05:54:17;;;;;;;23.83;18.50;;;;;;;9.37;100.00;97687.14;1727720;81;20968;-87
2021/11/29 05:56:44;;;;;;;20.30;17.52;;;;;;;9.34;100.00;97688.27;1732289;81;20963;-89
2021/11/29 05:59:11;;;;;;;19.20;17.12;;;;;;;9.32;100.00;97682.39;1747029;81;21078;-87
2021/11/29 06:01:38;;;;;;;23.77;18.95;;;;;;;9.32;100.00;97670.32;1731954;81;21066;-91
2021/11/29 06:04:05;;;;;;;19.10;16.32;;;;;;;9.29;100.00;97664.20;1707229;81;20986;-88
2021/11/29 06:06:32;;;;;;;21.48;18.30;;;;;;;9.27;100.00;97663.15;1706227;81;21053;-90
2021/11/29 06:09:00;;;;;;;23.47;17.98;;;;;;;9.22;100.00;97657.86;1730920;80;20995;-89
2021/11/29 06:11:27;;;;;;;20.27;17.55;;;;;;;9.25;100.00;97659.98;1744033;81;21030;-91
2021/11/29 06:13:54;;;;;;;18.20;16.30;;;;;;;9.31;100.00;97657.98;1737677;81;21484;-88
2021/11/29 06:16:23;;;;;;;22.45;17.37;;;;;;;9.38;100.00;97654.41;1735930;82;21043;-92
2021/11/29 06:18:50;;;;;;;19.48;15.05;;;;;;;9.39;100.00;97647.96;1751068;81;21065;-91
2021/11/29 06:21:17;;;;;;;19.60;17.02;;;;;;;9.37;100.00;97653.61;1769564;81;20935;-89
2021/11/29 06:23:44;;;;;;;17.37;14.45;;;;;;;9.34;100.00;97650.72;1744428;81;21046;-88
2021/11/29 06:26:11;;;;;;;19.80;14.95;;;;;;;9.35;100.00;97645.62;1769726;81;21188;-86
2021/11/29 06:28:38;;;;;;;23.05;18.00;;;;;;;9.36;100.00;97648.53;1751420;81;20994;-90
2021/11/29 06:31:05;;;;;;;36.50;21.48;;;;;;;9.39;100.00;97645.28;1730088;81;20923;-90
2021/11/29 06:33:32;;;;;;;22.25;19.02;;;;;;;9.39;100.00;97650.11;1742348;81;20974;-81
2021/11/29 06:36:00;;;;;;;24.87;20.00;;;;;;;9.42;100.00;97647.38;1768756;81;21496;-79
2021/11/29 06:38:27;;;;;;;21.37;18.40;;;;;;;9.48;100.00;97646.20;1742234;81;21182;-81
2021/11/29 06:40:56;;;;;;;34.25;22.77;;;;;;;9.51;100.00;97646.95;1738589;81;21038;-78
2021/11/29 06:43:23;;;;;;;25.45;20.62;;;;;;;9.50;100.00;97642.12;1710776;82;21476;-83
2021/11/29 06:45:51;;;;;;;25.75;20.92;;;;;;;9.51;100.00;97636.22;1738964;81;21101;-83
2021/11/29 06:48:18;;;;;;;26.97;21.33;;;;;;;9.52;100.00;97629.77;1742765;81;21105;-79
2021/11/29 06:50:45;;;;;;;26.80;21.20;;;;;;;9.49;100.00;97632.51;1767812;81;21787;-77
2021/11/29 06:53:12;;;;;;;21.23;18.48;;;;;;;9.48;100.00;97626.89;1742450;81;22125;-81
2021/11/29 06:55:40;;;;;;;21.93;17.50;;;;;;;9.48;100.00;97616.16;1768527;80;20986;-80
2021/11/29 06:58:07;;;;;;;26.15;18.75;;;;;;;9.56;100.00;97621.38;1742631;81;21019;-80
2021/11/29 07:00:34;;;;;;;27.32;20.40;;;;;;;9.55;100.00;97617.10;1761418;80;21018;-83
2021/11/29 07:03:01;;;;;;;22.65;19.00;;;;;;;9.47;100.00;97602.48;1744771;81;21124;-82
2021/11/29 07:05:29;;;;;;;27.20;20.72;;;;;;;9.46;100.00;97600.88;1759427;81;21037;-82
2021/11/29 07:07:56;;;;;;;22.65;16.85;;;;;;;9.44;100.00;97596.38;1740807;81;21006;-86
2021/11/29 07:10:28;;;;;;;24.47;19.82;;;;;;;9.43;100.00;97596.11;1733884;82;21049;-81
2021/11/29 07:12:56;;;;;;;23.70;19.10;;;;;;;9.43;100.00;97590.75;1729151;83;21596;-79
2021/11/29 07:15:24;;;;;;;30.97;21.48;;;;;;;9.45;100.00;97581.05;1736120;81;21891;-82
2021/11/29 07:17:51;;;;;;;24.27;20.25;;;;;;;9.48;100.00;97571.88;1737205;81;21058;-85
2021/11/29 07:20:18;;;;;;;22.15;19.73;;;;;;;9.53;100.00;97563.75;1758254;81;20955;-79
2021/11/29 07:22:46;;;;;;;21.23;17.40;;;;;;;9.52;100.00;97550.08;1749691;81;21583;-83
2021/11/29 07:25:13;;;;;;;24.75;19.92;;;;;;;9.56;100.00;97548.39;1737586;81;20978;-81
2021/11/29 07:27:42;;;;;;;22.55;17.67;;;;;;;9.61;100.00;97544.82;1759115;81;21087;-79
2021/11/29 07:30:12;;;;;;;24.10;17.57;;;;;;;9.67;100.00;97544.98;1737329;81;20962;-83
2021/11/29 07:32:41;;;;;;;21.45;17.80;;;;;;;9.72;100.00;97541.41;1759158;81;20936;-82
2021/11/29 07:35:08;;;;;;;26.85;21.52;;;;;;;9.77;100.00;97546.14;1737220;81;21578;-85
2021/11/29 07:37:36;;;;;;;29.67;24.12;;;;;;;9.77;100.00;97534.61;1759214;81;21064;-83
2021/11/29 07:40:05;;;;;;;23.32;17.35;;;;;;;9.75;100.00;97526.05;1736405;81;21280;-85
2021/11/29 07:42:35;;;;;;;26.57;19.85;;;;;;;9.78;100.00;97522.78;1729433;81;20985;-81
2021/11/29 07:45:06;;;;;;;28.15;20.45;;;;;;;9.80;100.00;97516.02;1759411;81;21586;-85
2021/11/29 07:47:33;;;;;;;25.85;20.02;;;;;;;9.82;100.00;97519.20;1706440;81;21110;-82
2021/11/29 07:50:02;;;;;;;23.57;19.23;;;;;;;9.89;100.00;97525.50;1707619;82;21016;-81
2021/11/29 07:52:29;;;;;;;23.65;19.77;;;;;;;9.95;100.00;97524.32;1705487;82;21122;-77
2021/11/29 07:54:56;;;;;;;23.60;19.07;;;;;;;9.99;100.00;97530.68;1726018;83;20944;-80
2021/11/29 07:57:23;;;;;;;21.40;17.15;;;;;;;10.03;100.00;97522.27;1705650;83;21560;-74
2021/11/29 07:59:51;;;;;;;24.85;22.20;;;;;;;10.07;100.00;97521.38;1749413;81;21068;-77
2021/11/29 08:02:17;;;;;;;22.98;19.98;;;;;;;10.12;100.00;97520.47;1736223;81;21094;-79
2021/11/29 08:04:46;;;;;;;23.70;19.62;;;;;;;10.19;100.00;97519.56;1737458;81;21759;-77
2021/11/29 08:07:16;;;;;;;23.30;19.00;;;;;;;10.19;100.00;97508.82;1758998;81;21019;-77
2021/11/29 08:09:42;;;;;;;21.97;18.67;;;;;;;10.18;100.00;97499.72;1750173;81;21074;-78
2021/11/29 08:12:11;;;;;;;23.40;18.87;;;;;;;10.16;100.00;97500.03;1738375;82;21010;-79
2021/11/29 08:14:40;;;;;;;22.25;19.35;;;;;;;10.14;100.00;97497.36;1734470;81;21614;-79
2021/11/29 08:17:08;;;;;;;21.80;16.77;;;;;;;10.19;100.00;97481.16;1759887;81;20999;-74
2021/11/29 08:19:37;;;;;;;25.95;19.10;;;;;;;10.24;100.00;97475.69;1714649;81;20994;-74
2021/11/29 08:22:04;;;;;;;21.15;18.12;;;;;;;10.19;100.00;97474.45;1724440;81;20989;-74
2021/11/29 08:24:31;;;;;;;24.32;17.70;;;;;;;10.21;100.00;97465.02;1712846;82;20974;-78
2021/11/29 08:27:00;;;;;;;22.75;17.10;;;;;;;10.25;100.00;97458.48;1739372;81;21057;-79
2021/11/29 08:29:27;;;;;;;24.92;16.95;;;;;;;10.30;100.00;97461.86;1713391;82;21020;-79
2021/11/29 08:31:54;;;;;;;21.70;17.37;;;;;;;10.38;100.00;97452.27;1733339;81;21002;-76
2021/11/29 08:34:21;;;;;;;20.82;16.65;;;;;;;10.37;100.00;97447.98;1741152;81;20978;-77
2021/11/29 08:36:48;;;;;;;24.50;16.62;;;;;;;10.35;100.00;97447.52;1733317;81;20958;-78
2021/11/29 08:39:15;;;;;;;17.15;15.20;;;;;;;10.34;100.00;97441.34;1746770;81;20959;-77
2021/11/29 08:41:42;;;;;;;24.67;17.02;;;;;;;10.38;100.00;97437.49;1725774;82;21003;-78
2021/11/29 08:44:11;;;;;;;24.12;17.12;;;;;;;10.35;100.00;97424.67;1757584;79;20944;-79
2021/11/29 08:46:38;;;;;;;22.10;17.67;;;;;;;10.32;100.00;97419.89;1744041;81;20959;-79
2021/11/29 08:49:05;;;;;;;23.85;14.65;;;;;;;10.32;100.00;97411.83;1770648;81;21024;-77
2021/11/29 08:51:31;;;;;;;19.07;14.87;;;;;;;10.37;100.00;97404.45;1772278;81;20955;-78
2021/11/29 08:53:59;;;;;;;20.00;15.90;;;;;;;10.40;100.00;97399.84;1772354;80;21078;-76
2021/11/29 08:56:26;;;;;;;22.73;18.25;;;;;;;10.38;100.00;97389.92;1740726;81;21002;-76
2021/11/29 08:58:53;;;;;;;25.62;17.00;;;;;;;10.39;100.00;97375.95;1771489;81;20935;-78
2021/11/29 09:01:20;;;;;;;19.95;16.52;;;;;;;10.34;100.00;97364.77;1743605;81;21468;-79
2021/11/29 09:03:47;;;;;;;23.62;16.52;;;;;;;10.32;100.00;97360.24;1718426;81;21039;-76
2021/11/29 09:06:16;;;;;;;27.07;17.82;;;;;;;10.31;100.00;97356.54;1742664;81;21043;-77
2021/11/29 09:08:43;;;;;;;32.10;19.27;;;;;;;10.32;100.00;97346.81;1722582;82;21109;-77
2021/11/29 09:11:10;;;;;;;24.30;18.23;;;;;;;10.41;100.00;97346.87;1732159;81;21638;-76
2021/11/29 09:13:37;;;;;;;21.25;18.75;;;;;;;10.40;100.00;97340.73;1768607;80;21085;-77
2021/11/29 09:16:05;;;;;;;23.27;17.75;;;;;;;10.34;100.00;97315.08;1742702;81;21112;-78
2021/11/29 09:18:35;;;;;;;30.45;22.07;;;;;;;10.31;100.00;97311.64;1697084;81;20975;-83
2021/11/29 09:21:03;;;;;;;26.33;19.42;;;;;;;10.25;100.00;97305.38;1767935;81;21062;-83
2021/11/29 09:23:30;;;;;;;25.80;18.77;;;;;;;10.19;100.00;97300.66;1768371;81;21054;-74
2021/11/29 09:25:57;;;;;;;28.70;19.37;;;;;;;10.18;100.00;97288.88;1740426;81;21708;-76
2021/11/29 09:28:24;;;;;;;34.38;20.80;;;;;;;10.18;100.00;97292.36;1742752;81;20958;-78
2021/11/29 09:30:52;;;;;;;29.40;23.60;;;;;;;10.21;100.00;97286.94;1768774;80;21269;-83
2021/11/29 09:33:21;;;;;;;30.05;21.30;;;;;;;10.22;100.00;97279.11;1758815;81;20931;-82
2021/11/29 09:35:49;;;;;;;30.25;22.40;;;;;;;10.25;100.00;97276.62;1710953;82;21070;-81
2021/11/29 09:38:16;;;;;;;33.02;20.68;;;;;;;10.24;100.00;97273.69;1734993;82;21050;-84
2021/11/29 09:40:43;;;;;;;26.12;19.52;;;;;;;10.26;100.00;97263.44;1712497;81;21043;-82
2021/11/29 09:43:13;;;;;;;32.73;23.55;;;;;;;10.33;100.00;97259.75;1768607;81;21126;-83
2021/11/29 09:45:44;;;;;;;29.42;24.50;;;;;;;10.36;100.00;97255.67;1768384;80;21085;-78
2021/11/29 09:48:13;;;;;;;28.73;23.92;;;;;;;10.37;100.00;97239.77;1768545;81;21106;-77
2021/11/29 09:50:43;;;;;;;26.57;20.20;;;;;;;10.43;100.00;97247.41;1768000;81;21086;-78
2021/11/29 09:53:11;;;;;;;30.65;21.73;;;;;;;10.46;100.00;97233.89;1768944;81;21586;-84
2021/11/29 09:55:38;;;;;;;25.75;19.95;;;;;;;10.46;100.00;97229.31;1723765;82;21066;-80
2021/11/29 09:58:06;;;;;;;24.67;18.20;;;;;;;10.54;100.00;97226.44;1734928;82;20943;-77
2021/11/29 10:00:38;;;;;;;27.45;19.45;;;;;;;10.58;100.00;97214.52;1736996;81;21058;-76
2021/11/29 10:03:04;;;;;;;27.55;20.50;;;;;;;10.62;100.00;97210.10;1711766;81;21022;-74
2021/11/29 10:05:35;;;;;;;28.70;17.32;;;;;;;10.64;100.00;97197.95;1734832;81;21049;-77
2021/11/29 10:08:22;;;;;;;26.05;17.85;;;;;;;10.67;100.00;97185.22;1709752;82;21887;-78
2021/11/29 10:10:55;;;;;;;29.67;19.57;;;;;;;10.70;100.00;97171.15;1754823;80;21073;-78
2021/11/29 10:13:23;;;;;;;31.97;22.13;;;;;;;10.76;100.00;97163.19;1760868;81;21524;-77
2021/11/29 10:15:51;;;;;;;26.02;20.40;;;;;;;10.86;100.00;97163.45;1737036;81;20963;-79
2021/11/29 10:18:26;;;;;;;33.92;24.12;;;;;;;10.96;100.00;97159.13;1735870;81;21105;-77
2021/11/29 10:21:08;;;;;;;32.35;24.05;;;;;;;10.98;100.00;97164.20;1713104;82;22333;-77
2021/11/29 10:23:42;;;;;;;32.23;24.20;;;;;;;10.94;100.00;97156.73;1748101;81;21567;-77
2021/11/29 10:26:33;;;;;;;31.05;22.22;;;;;;;10.93;100.00;97160.52;1739816;81;21637;-76
2021/11/29 10:29:04;;;;;;;25.75;19.52;;;;;;;10.91;100.00;97161.41;1735882;81;21078;-77
2021/11/29 10:31:47;;;;;;;23.47;16.62;;;;;;;10.92;100.00;97168.38;1710144;82;21079;-77
2021/11/29 10:34:17;;;;;;;29.00;20.82;;;;;;;10.97;100.00;97166.64;1733016;82;21828;-75
2021/11/29 10:36:52;;;;;;;29.92;20.65;;;;;;;10.96;100.00;97156.98;1713508;81;21086;-76
2021/11/29 10:39:43;;;;;;;23.38;19.98;;;;;;;10.93;100.00;97145.73;1766363;81;21021;-74
2021/11/29 10:42:12;;;;;;;29.23;19.92;;;;;;;10.91;100.00;97136.41;1742774;81;21108;-74
2021/11/29 10:44:42;;;;;;;27.48;18.70;;;;;;;10.91;100.00;97131.83;1766415;81;20987;-75
2021/11/29 10:47:16;;;;;;;23.15;18.12;;;;;;;10.88;100.00;97120.37;1723578;81;21060;-77
2021/11/29 10:49:45;;;;;;;29.80;19.17;;;;;;;10.91;100.00;97113.56;1767528;81;20986;-81
2021/11/29 10:52:21;;;;;;;24.15;17.65;;;;;;;10.93;100.00;97108.67;1734211;81;21001;-78
2021/11/29 10:54:51;;;;;;;24.00;17.80;;;;;;;10.98;100.00;97114.45;1735725;81;21092;-80
2021/11/29 10:57:19;;;;;;;23.60;17.77;;;;;;;11.01;100.00;97106.53;1742416;81;21049;-81
2021/11/29 10:59:50;;;;;;;24.85;16.50;;;;;;;11.03;100.00;97098.92;1705981;82;21946;-80
2021/11/29 11:02:21;;;;;;;23.57;19.10;;;;;;;11.09;100.00;97100.36;1728447;83;20970;-75
2021/11/29 11:05:06;;;;;;;23.80;17.15;;;;;;;11.10;100.00;97085.02;1723728;83;20950;-77
2021/11/29 11:07:35;;;;;;;23.07;18.23;;;;;;;11.12;100.00;97079.58;1672454;84;21539;-80
2021/11/29 11:10:09;;;;;;;20.00;16.42;;;;;;;11.19;100.00;97089.28;1669588;84;21513;-77
2021/11/29 11:12:37;;;;;;;26.70;19.52;;;;;;;11.24;100.00;97083.75;1691255;84;21167;-80
2021/11/29 11:15:08;;;;;;;25.05;19.10;;;;;;;11.27;100.00;97072.92;1696554;84;21339;-80
2021/11/29 11:17:36;;;;;;;24.57;17.65;;;;;;;11.25;100.00;97067.84;1698125;84;21055;-78
2021/11/29 11:20:13;;;;;;;30.40;20.57;;;;;;;11.25;100.00;97064.36;1675842;84;21539;-80